createdAt,value
2022-09-12T00:00:24.256Z,12.70
2022-09-12T00:02:53.929Z,12.70
2022-09-12T00:05:23.725Z,12.74
2022-09-12T00:07:51.810Z,12.79
2022-09-12T00:10:19.661Z,12.66
2022-09-12T00:12:47.382Z,12.72
2022-09-12T00:15:15.297Z,12.64
2022-09-12T00:17:42.953Z,12.59
2022-09-12T00:20:12.134Z,12.69
2022-09-12T00:22:41.448Z,12.61
2022-09-12T00:25:09.197Z,12.60
2022-09-12T00:27:36.955Z,12.64
2022-09-12T00:30:05.192Z,12.41
2022-09-12T00:32:32.890Z,12.38
2022-09-12T00:35:02.802Z,12.35
2022-09-12T00:37:30.512Z,12.43
2022-09-12T00:39:59.573Z,12.36
2022-09-12T00:42:27.393Z,12.33
2022-09-12T00:44:55.081Z,12.26
2022-09-12T00:47:26.308Z,12.34
2022-09-12T00:49:59.481Z,12.25
2022-09-12T00:52:30.671Z,12.40
2022-09-12T00:55:04.315Z,12.39
2022-09-12T00:57:36.424Z,12.30
2022-09-12T01:00:11.506Z,12.34
2022-09-12T01:02:39.456Z,12.27
2022-09-12T01:05:08.450Z,12.33
2022-09-12T01:07:39.998Z,12.25
2022-09-12T01:10:10.956Z,12.34
2022-09-12T01:12:41.427Z,12.18
2022-09-12T01:15:10.074Z,12.25
2022-09-12T01:17:52.250Z,12.38
2022-09-12T01:20:42.920Z,12.21
2022-09-12T01:23:35.506Z,12.14
2022-09-12T01:26:29.250Z,12.14
2022-09-12T01:29:12.893Z,12.13
2022-09-12T01:31:50.375Z,12.13
2022-09-12T01:34:28.100Z,12.08
2022-09-12T01:37:05.757Z,12.04
2022-09-12T01:39:41.295Z,11.95
2022-09-12T01:42:19.459Z,12.00
2022-09-12T01:44:54.884Z,12.08
2022-09-12T01:47:30.615Z,11.97
2022-09-12T01:50:02.605Z,11.86
2022-09-12T01:52:36.293Z,11.90
2022-09-12T01:55:12.766Z,11.93
2022-09-12T01:57:45.479Z,11.99
2022-09-12T02:00:14.412Z,11.96
2022-09-12T02:02:50.584Z,11.93
2022-09-12T02:05:23.205Z,12.02
2022-09-12T02:07:54.766Z,12.08
2022-09-12T02:10:32.227Z,12.01
2022-09-12T02:13:08.732Z,12.02
2022-09-12T02:15:40.150Z,12.01
2022-09-12T02:18:14.089Z,11.98
2022-09-12T02:20:48.633Z,11.95
2022-09-12T02:23:23.653Z,11.86
2022-09-12T02:25:57.527Z,11.89
2022-09-12T02:28:31.020Z,11.95
2022-09-12T02:31:06.525Z,12.03
2022-09-12T02:33:44.461Z,11.98
2022-09-12T02:36:23.943Z,11.91
2022-09-12T02:38:52.140Z,11.96
2022-09-12T02:41:22.132Z,11.86
2022-09-12T02:43:51.397Z,11.79
2022-09-12T02:46:24.189Z,11.75
2022-09-12T02:48:54.345Z,11.79
2022-09-12T02:51:23.847Z,11.73
2022-09-12T02:53:52.459Z,11.73
2022-09-12T02:56:27.193Z,11.73
2022-09-12T02:58:57.211Z,11.76
2022-09-12T03:01:36.432Z,11.73
2022-09-12T03:04:24.338Z,11.69
2022-09-12T03:07:02.147Z,11.72
2022-09-12T03:09:38.789Z,11.72
2022-09-12T03:12:19.667Z,11.85
2022-09-12T03:15:13.623Z,11.72
2022-09-12T03:17:55.686Z,11.62
2022-09-12T03:20:37.102Z,11.71
2022-09-12T03:23:10.703Z,11.68
2022-09-12T03:25:44.543Z,11.64
2022-09-12T03:28:16.607Z,11.63
2022-09-12T03:30:46.646Z,11.61
2022-09-12T03:33:16.234Z,11.62
2022-09-12T03:35:45.787Z,11.67
2022-09-12T03:38:13.559Z,11.68
2022-09-12T03:40:41.389Z,11.64
2022-09-12T03:43:09.887Z,11.53
2022-09-12T03:45:38.842Z,11.45
2022-09-12T03:48:07.177Z,11.47
2022-09-12T03:50:35.132Z,11.54
2022-09-12T03:53:04.998Z,11.50
2022-09-12T03:55:32.676Z,11.51
2022-09-12T03:58:00.548Z,11.47
2022-09-12T04:00:28.299Z,11.47
2022-09-12T04:02:56.987Z,11.53
2022-09-12T04:05:25.255Z,11.48
2022-09-12T04:07:53.601Z,11.42
2022-09-12T04:10:22.680Z,11.45
2022-09-12T04:12:50.420Z,11.46
2022-09-12T04:15:18.237Z,11.60
2022-09-12T04:17:46.001Z,11.48
2022-09-12T04:20:13.643Z,11.47
2022-09-12T04:22:41.430Z,11.42
2022-09-12T04:25:10.387Z,11.40
2022-09-12T04:27:39.419Z,11.39
2022-09-12T04:30:08.896Z,11.45
2022-09-12T04:32:36.584Z,11.40
2022-09-12T04:35:05.249Z,11.47
2022-09-12T04:37:32.905Z,11.41
2022-09-12T04:40:00.716Z,11.38
2022-09-12T04:42:28.484Z,11.38
2022-09-12T04:44:57.714Z,11.36
2022-09-12T04:47:25.514Z,11.31
2022-09-12T04:49:53.953Z,11.33
2022-09-12T04:52:21.620Z,11.33
2022-09-12T04:54:49.368Z,11.34
2022-09-12T04:57:17.126Z,11.20
2022-09-12T04:59:44.966Z,11.29
2022-09-12T05:02:14.097Z,11.31
2022-09-12T05:04:41.861Z,11.21
2022-09-12T05:07:09.575Z,11.17
2022-09-12T05:09:37.343Z,11.23
2022-09-12T05:12:06.049Z,11.29
2022-09-12T05:14:34.892Z,11.34
2022-09-12T05:17:03.200Z,11.25
2022-09-12T05:19:32.991Z,11.44
2022-09-12T05:22:00.945Z,11.36
2022-09-12T05:24:28.942Z,11.36
2022-09-12T05:26:56.671Z,11.32
2022-09-12T05:29:25.127Z,11.62
2022-09-12T05:31:53.428Z,11.80
2022-09-12T05:34:21.494Z,11.93
2022-09-12T05:36:50.627Z,12.05
2022-09-12T05:39:18.568Z,12.17
2022-09-12T05:41:47.290Z,12.19
2022-09-12T05:44:15.629Z,12.28
2022-09-12T05:46:45.123Z,12.39
2022-09-12T05:49:14.772Z,12.43
2022-09-12T05:51:44.865Z,12.49
2022-09-12T05:54:16.100Z,12.31
2022-09-12T05:56:45.358Z,12.49
2022-09-12T05:59:15.148Z,12.65
2022-09-12T06:01:43.057Z,12.59
2022-09-12T06:04:11.135Z,12.58
2022-09-12T06:06:41.686Z,12.87
2022-09-12T06:09:09.656Z,13.00
2022-09-12T06:11:41.328Z,12.94
2022-09-12T06:14:10.071Z,13.27
2022-09-12T06:16:38.766Z,13.55
2022-09-12T06:19:08.796Z,13.64
2022-09-12T06:21:37.783Z,14.15
2022-09-12T06:24:05.909Z,14.28
2022-09-12T06:26:33.631Z,14.45
2022-09-12T06:29:03.143Z,14.85
2022-09-12T06:31:33.118Z,14.83
2022-09-12T06:34:02.542Z,14.93
2022-09-12T06:36:32.266Z,15.01
2022-09-12T06:39:01.889Z,15.04
2022-09-12T06:41:31.073Z,14.97
2022-09-12T06:43:59.312Z,15.08
2022-09-12T06:46:28.946Z,15.62
2022-09-12T06:48:57.408Z,15.71
2022-09-12T06:51:25.421Z,15.80
2022-09-12T06:53:56.115Z,15.99
2022-09-12T06:56:26.413Z,16.51
2022-09-12T06:58:56.347Z,16.52
2022-09-12T07:01:25.989Z,16.88
2022-09-12T07:03:56.705Z,16.63
2022-09-12T07:06:31.564Z,16.53
2022-09-12T07:09:00.095Z,17.04
2022-09-12T07:11:30.497Z,17.76
2022-09-12T07:14:00.497Z,18.22
2022-09-12T07:16:28.560Z,17.53
2022-09-12T07:18:59.417Z,18.54
2022-09-12T07:21:27.963Z,18.76
2022-09-12T07:23:57.777Z,18.79
2022-09-12T07:26:26.778Z,19.48
2022-09-12T07:29:07.884Z,19.52
2022-09-12T07:31:43.521Z,19.48
2022-09-12T07:34:12.914Z,19.63
2022-09-12T07:36:40.730Z,18.73
2022-09-12T07:39:08.624Z,19.54
2022-09-12T07:41:36.342Z,20.20
2022-09-12T07:44:06.647Z,19.51
2022-09-12T07:46:35.310Z,21.19
2022-09-12T07:49:03.965Z,20.69
2022-09-12T07:51:33.288Z,20.95
2022-09-12T07:54:01.130Z,20.65
2022-09-12T07:56:32.023Z,20.58
2022-09-12T07:59:02.407Z,20.57
2022-09-12T08:01:30.089Z,19.78
2022-09-12T08:03:59.111Z,21.64
2022-09-12T08:06:28.429Z,21.28
2022-09-12T08:08:59.112Z,21.13
2022-09-12T08:11:29.245Z,21.34
2022-09-12T08:13:58.152Z,21.86
2022-09-12T08:16:29.537Z,22.07
2022-09-12T08:18:57.426Z,22.03
2022-09-12T08:21:26.814Z,22.87
2022-09-12T08:23:56.456Z,22.84
2022-09-12T08:26:25.873Z,23.01
2022-09-12T08:28:54.780Z,22.59
2022-09-12T08:31:24.337Z,23.45
2022-09-12T08:33:52.622Z,23.17
2022-09-12T08:36:22.629Z,23.54
2022-09-12T08:38:53.675Z,22.88
2022-09-12T08:41:30.459Z,22.71
2022-09-12T08:44:20.027Z,22.21
2022-09-12T08:46:59.144Z,23.26
2022-09-12T08:49:31.034Z,22.93
2022-09-12T08:52:00.439Z,23.31
2022-09-12T08:54:30.885Z,23.79
2022-09-12T08:57:06.881Z,24.38
2022-09-12T08:59:39.169Z,22.94
2022-09-12T09:02:29.781Z,23.94
2022-09-12T09:05:10.682Z,24.97
2022-09-12T09:08:00.293Z,23.68
2022-09-12T09:10:36.020Z,23.62
2022-09-12T09:13:38.260Z,24.23
2022-09-12T09:16:09.982Z,23.92
2022-09-12T09:18:38.577Z,23.61
2022-09-12T09:21:14.559Z,24.37
2022-09-12T09:23:46.684Z,24.97
2022-09-12T09:26:18.203Z,24.65
2022-09-12T09:28:51.336Z,24.67
2022-09-12T09:31:21.380Z,24.59
2022-09-12T09:33:51.155Z,25.54
2022-09-12T09:36:22.385Z,26.48
2022-09-12T09:38:51.689Z,25.63
2022-09-12T09:41:31.744Z,24.96
2022-09-12T09:44:02.784Z,25.87
2022-09-12T09:46:30.737Z,25.01
2022-09-12T09:49:02.332Z,25.69
2022-09-12T09:51:46.467Z,26.64
2022-09-12T09:54:20.693Z,26.69
2022-09-12T09:56:48.530Z,25.29
2022-09-12T09:59:19.806Z,25.56
2022-09-12T10:01:50.902Z,24.66
2022-09-12T10:04:21.948Z,24.28
2022-09-12T10:06:52.813Z,24.48
2022-09-12T10:09:23.900Z,25.17
2022-09-12T10:11:53.738Z,25.60
2022-09-12T10:14:36.028Z,26.02
2022-09-12T10:17:22.383Z,25.63
2022-09-12T10:20:10.543Z,26.24
2022-09-12T10:22:39.543Z,25.20
2022-09-12T10:25:13.183Z,27.04
2022-09-12T10:27:42.962Z,27.57
2022-09-12T10:30:20.651Z,26.17
2022-09-12T10:32:50.815Z,26.69
2022-09-12T10:35:21.038Z,26.49
2022-09-12T10:37:55.801Z,26.72
2022-09-12T10:40:26.120Z,27.38
2022-09-12T10:42:55.815Z,28.07
2022-09-12T10:45:30.463Z,27.53
2022-09-12T10:48:04.145Z,28.00
2022-09-12T10:50:40.394Z,29.47
2022-09-12T10:53:19.451Z,28.50
2022-09-12T10:56:02.865Z,28.21
2022-09-12T10:58:43.975Z,27.98
2022-09-12T11:01:25.552Z,28.43
2022-09-12T11:04:14.511Z,28.17
2022-09-12T11:06:53.701Z,28.85
2022-09-12T11:09:29.128Z,28.97
2022-09-12T11:12:08.235Z,28.81
2022-09-12T11:14:49.111Z,30.56
2022-09-12T11:17:26.530Z,29.28
2022-09-12T11:20:21.268Z,29.06
2022-09-12T11:23:15.140Z,29.93
2022-09-12T11:25:50.997Z,31.28
2022-09-12T11:28:35.841Z,30.23
2022-09-12T11:31:35.377Z,32.24
2022-09-12T11:34:10.061Z,30.69
2022-09-12T11:36:44.194Z,33.12
2022-09-12T11:39:15.846Z,33.99
2022-09-12T11:41:47.973Z,33.42
2022-09-12T11:44:23.271Z,31.58
2022-09-12T11:46:52.221Z,31.41
2022-09-12T11:49:34.779Z,31.21
2022-09-12T11:52:08.011Z,31.61
2022-09-12T11:54:40.852Z,31.11
2022-09-12T11:57:15.940Z,32.27
2022-09-12T11:59:49.908Z,30.87
2022-09-12T12:02:26.621Z,32.42
2022-09-12T12:05:16.046Z,33.43
2022-09-12T12:07:54.407Z,31.69
2022-09-12T12:10:32.196Z,30.93
2022-09-12T12:13:03.737Z,33.23
2022-09-12T12:15:32.457Z,30.69
2022-09-12T12:18:06.753Z,31.89
2022-09-12T12:20:36.546Z,31.67
2022-09-12T12:23:04.767Z,31.66
2022-09-12T12:25:41.799Z,31.89
2022-09-12T12:28:09.611Z,31.82
2022-09-12T12:31:03.209Z,33.37
2022-09-12T12:34:07.617Z,34.08
2022-09-12T12:36:46.335Z,34.09
2022-09-12T12:40:00.911Z,32.90
2022-09-12T12:43:22.232Z,30.98
2022-09-12T12:46:12.351Z,31.69
2022-09-12T12:48:57.222Z,31.35
2022-09-12T12:51:41.331Z,30.49
2022-09-12T12:54:35.525Z,30.08
2022-09-12T12:57:17.668Z,29.24
2022-09-12T12:59:52.746Z,28.51
2022-09-12T13:02:28.372Z,27.82
2022-09-12T13:04:57.016Z,27.73
2022-09-12T13:07:34.699Z,27.11
2022-09-12T13:10:05.970Z,26.74
2022-09-12T13:12:37.226Z,26.67
2022-09-12T13:15:26.535Z,27.62
2022-09-12T13:17:54.677Z,28.62
2022-09-12T13:20:29.478Z,28.68
2022-09-12T13:22:58.699Z,29.25
2022-09-12T13:25:30.924Z,29.82
2022-09-12T13:28:18.397Z,30.70
2022-09-12T13:30:48.569Z,31.29
2022-09-12T13:33:22.304Z,31.97
2022-09-12T13:36:32.029Z,32.02
2022-09-12T13:39:18.749Z,32.26
2022-09-12T13:42:25.719Z,32.74
2022-09-12T13:44:59.058Z,31.40
2022-09-12T13:47:31.914Z,29.48
2022-09-12T13:50:00.314Z,28.07
2022-09-12T13:52:31.536Z,27.59
2022-09-12T13:55:01.400Z,26.74
2022-09-12T13:57:32.217Z,26.17
2022-09-12T14:00:05.815Z,25.70
2022-09-12T14:02:37.356Z,25.35
2022-09-12T14:05:13.580Z,24.90
2022-09-12T14:07:53.308Z,24.75
2022-09-12T14:10:27.032Z,24.68
2022-09-12T14:12:57.260Z,24.99
2022-09-12T14:15:28.991Z,24.77
2022-09-12T14:18:01.379Z,24.47
2022-09-12T14:20:32.387Z,24.31
2022-09-12T14:23:03.452Z,23.91
2022-09-12T14:25:37.360Z,23.93
2022-09-12T14:28:06.141Z,23.91
2022-09-12T14:30:37.826Z,23.54
2022-09-12T14:33:17.791Z,23.50
2022-09-12T14:35:48.224Z,23.61
2022-09-12T14:38:25.067Z,24.21
2022-09-12T14:41:00.783Z,24.34
2022-09-12T14:43:30.617Z,24.91
2022-09-12T14:46:03.243Z,25.44
2022-09-12T14:48:33.934Z,25.89
2022-09-12T14:51:02.202Z,25.40
2022-09-12T14:53:34.366Z,25.48
2022-09-12T14:56:08.866Z,24.98
2022-09-12T14:58:37.312Z,24.73
2022-09-12T15:01:24.603Z,24.33
2022-09-12T15:03:54.262Z,23.90
2022-09-12T15:06:25.740Z,23.59
2022-09-12T15:08:55.620Z,23.23
2022-09-12T15:11:24.032Z,23.39
2022-09-12T15:13:51.892Z,23.23
2022-09-12T15:16:21.085Z,23.34
2022-09-12T15:18:48.828Z,23.49
2022-09-12T15:21:20.026Z,23.43
2022-09-12T15:23:49.871Z,23.50
2022-09-12T15:26:19.607Z,23.33
2022-09-12T15:28:47.397Z,23.18
2022-09-12T15:31:25.402Z,22.97
2022-09-12T15:33:53.623Z,22.84
2022-09-12T15:36:23.441Z,23.17
2022-09-12T15:38:51.794Z,23.74
2022-09-12T15:41:21.196Z,24.38
2022-09-12T15:43:49.458Z,25.26
2022-09-12T15:46:19.021Z,26.88
2022-09-12T15:48:48.170Z,28.15
2022-09-12T15:51:17.459Z,27.35
2022-09-12T15:53:46.060Z,27.00
2022-09-12T15:56:16.000Z,27.64
2022-09-12T15:58:57.838Z,27.80
2022-09-12T16:01:26.963Z,27.16
2022-09-12T16:03:56.148Z,27.50
2022-09-12T16:06:24.150Z,27.07
2022-09-12T16:08:51.791Z,27.20
2022-09-12T16:11:22.278Z,27.29
2022-09-12T16:13:50.329Z,26.20
2022-09-12T16:16:18.023Z,25.01
2022-09-12T16:18:45.770Z,24.13
2022-09-12T16:21:15.656Z,23.48
2022-09-12T16:23:43.896Z,22.33
2022-09-12T16:26:11.962Z,21.64
2022-09-12T16:28:39.838Z,21.35
2022-09-12T16:31:09.344Z,21.13
2022-09-12T16:33:39.139Z,20.80
2022-09-12T16:36:09.319Z,20.69
2022-09-12T16:38:43.349Z,20.57
2022-09-12T16:41:12.031Z,20.60
2022-09-12T16:43:40.429Z,20.53
2022-09-12T16:46:09.867Z,20.41
2022-09-12T16:48:37.937Z,20.47
2022-09-12T16:51:07.275Z,20.32
2022-09-12T16:53:36.974Z,20.27
2022-09-12T16:56:06.959Z,20.17
2022-09-12T16:58:39.695Z,20.13
2022-09-12T17:01:11.354Z,20.08
2022-09-12T17:03:39.618Z,19.88
2022-09-12T17:06:09.362Z,19.84
2022-09-12T17:08:39.241Z,19.71
2022-09-12T17:11:10.244Z,19.74
2022-09-12T17:14:02.699Z,19.68
2022-09-12T17:16:27.505Z,19.60
2022-09-12T17:18:55.960Z,19.49
2022-09-12T17:21:24.308Z,19.51
2022-09-12T17:23:51.978Z,19.44
2022-09-12T17:26:21.456Z,19.35
2022-09-12T17:28:49.594Z,19.38
2022-09-12T17:31:17.385Z,19.34
2022-09-12T17:33:45.653Z,19.36
2022-09-12T17:36:15.399Z,19.28
2022-09-12T17:38:45.116Z,19.09
2022-09-12T17:41:15.979Z,19.15
2022-09-12T17:43:46.322Z,19.13
2022-09-12T17:46:14.580Z,19.08
2022-09-12T17:48:42.511Z,19.09
2022-09-12T17:51:11.464Z,18.92
2022-09-12T17:53:39.460Z,18.83
2022-09-12T17:56:08.159Z,18.71
2022-09-12T17:58:36.342Z,18.61
2022-09-12T18:01:24.245Z,18.59
2022-09-12T18:03:55.341Z,18.60
2022-09-12T18:06:23.196Z,18.46
2022-09-12T18:08:51.044Z,18.41
2022-09-12T18:11:18.772Z,18.26
2022-09-12T18:13:46.666Z,18.29
2022-09-12T18:16:17.318Z,18.32
2022-09-12T18:18:45.058Z,18.22
2022-09-12T18:21:13.235Z,18.10
2022-09-12T18:23:41.021Z,18.05
2022-09-12T18:26:10.832Z,18.17
2022-09-12T18:28:40.054Z,18.15
2022-09-12T18:31:14.746Z,18.24
2022-09-12T18:33:43.888Z,18.07
2022-09-12T18:36:13.811Z,18.09
2022-09-12T18:38:43.073Z,17.96
2022-09-12T18:41:13.760Z,17.99
2022-09-12T18:43:41.621Z,18.04
2022-09-12T18:46:12.451Z,18.02
2022-09-12T18:48:40.359Z,18.00
2022-09-12T18:51:12.801Z,18.06
2022-09-12T18:53:40.520Z,18.05
2022-09-12T18:56:10.249Z,18.03
2022-09-12T18:58:38.487Z,17.98
2022-09-12T19:01:11.049Z,17.94
2022-09-12T19:03:38.891Z,17.68
2022-09-12T19:06:13.581Z,17.78
2022-09-12T19:08:41.980Z,17.75
2022-09-12T19:11:11.067Z,17.70
2022-09-12T19:13:39.959Z,17.53
2022-09-12T19:16:10.229Z,17.61
2022-09-12T19:18:38.489Z,17.56
2022-09-12T19:21:07.685Z,17.50
2022-09-12T19:23:37.511Z,17.44
2022-09-12T19:26:07.443Z,17.29
2022-09-12T19:28:35.775Z,17.34
2022-09-12T19:31:05.647Z,17.38
2022-09-12T19:33:33.512Z,17.36
2022-09-12T19:36:02.671Z,17.35
2022-09-12T19:38:30.502Z,17.33
2022-09-12T19:41:00.486Z,17.24
2022-09-12T19:43:28.879Z,17.19
2022-09-12T19:45:56.850Z,17.10
2022-09-12T19:48:24.995Z,17.09
2022-09-12T19:50:52.851Z,17.09
2022-09-12T19:53:20.746Z,17.04
2022-09-12T19:55:48.462Z,16.96
2022-09-12T19:58:17.578Z,17.00
2022-09-12T20:00:45.644Z,16.89
2022-09-12T20:03:13.541Z,16.96
2022-09-12T20:05:42.897Z,16.86
2022-09-12T20:08:10.823Z,16.85
2022-09-12T20:10:38.518Z,16.69
2022-09-12T20:13:07.153Z,16.59
2022-09-12T20:15:36.246Z,16.67
2022-09-12T20:18:04.199Z,16.75
2022-09-12T20:20:32.627Z,16.86
2022-09-12T20:23:00.331Z,16.86
2022-09-12T20:25:28.084Z,16.77
2022-09-12T20:27:59.933Z,16.80
2022-09-12T20:30:28.208Z,16.89
2022-09-12T20:32:57.243Z,16.95
2022-09-12T20:35:25.817Z,16.85
2022-09-12T20:37:53.552Z,16.76
2022-09-12T20:40:21.341Z,16.89
2022-09-12T20:42:49.256Z,16.78
2022-09-12T20:45:16.979Z,16.68
2022-09-12T20:47:44.716Z,16.61
2022-09-12T20:50:14.460Z,16.56
2022-09-12T20:52:42.171Z,16.58
2022-09-12T20:55:10.955Z,16.58
2022-09-12T20:57:38.724Z,16.49
2022-09-12T21:00:09.005Z,16.36
2022-09-12T21:02:36.772Z,16.37
2022-09-12T21:05:04.801Z,16.37
2022-09-12T21:07:33.846Z,16.34
2022-09-12T21:10:01.567Z,16.35
2022-09-12T21:12:29.659Z,16.38
2022-09-12T21:14:57.356Z,16.34
2022-09-12T21:17:25.196Z,16.20
2022-09-12T21:19:52.888Z,16.13
2022-09-12T21:22:20.549Z,16.18
2022-09-12T21:24:49.605Z,16.10
2022-09-12T21:27:19.096Z,16.02
2022-09-12T21:29:46.806Z,15.87
2022-09-12T21:32:14.517Z,15.72
2022-09-12T21:34:42.228Z,15.77
2022-09-12T21:37:09.945Z,15.82
2022-09-12T21:39:37.690Z,15.86
2022-09-12T21:42:07.067Z,15.95
2022-09-12T21:44:34.788Z,15.91
2022-09-12T21:47:02.671Z,15.82
2022-09-12T21:49:30.379Z,15.89
2022-09-12T21:51:58.084Z,15.85
2022-09-12T21:54:25.820Z,15.87
2022-09-12T21:56:53.844Z,15.88
2022-09-12T21:59:23.119Z,15.95
2022-09-12T22:01:50.898Z,15.84
2022-09-12T22:04:18.603Z,15.70
2022-09-12T22:06:46.375Z,15.67
2022-09-12T22:09:14.227Z,15.67
2022-09-12T22:11:41.942Z,15.76
2022-09-12T22:14:09.599Z,15.58
2022-09-12T22:16:38.647Z,15.66
2022-09-12T22:19:06.310Z,15.46
2022-09-12T22:21:34.016Z,15.41
2022-09-12T22:24:19.115Z,15.39
2022-09-12T22:26:47.190Z,15.20
2022-09-12T22:29:14.900Z,15.27
2022-09-12T22:31:44.063Z,15.40
2022-09-12T22:34:11.807Z,15.43
2022-09-12T22:36:39.733Z,15.41
2022-09-12T22:39:07.773Z,15.36
2022-09-12T22:41:35.509Z,15.41
2022-09-12T22:44:03.353Z,15.37
2022-09-12T22:46:31.190Z,15.34
2022-09-12T22:49:00.327Z,15.45
2022-09-12T22:51:28.615Z,15.31
2022-09-12T22:53:56.419Z,15.38
2022-09-12T22:56:24.836Z,15.30
2022-09-12T22:58:54.015Z,15.26
2022-09-12T23:01:22.039Z,15.17
2022-09-12T23:03:49.850Z,15.09
2022-09-12T23:06:18.994Z,15.16
2022-09-12T23:08:46.703Z,15.21
2022-09-12T23:11:16.670Z,15.20
2022-09-12T23:13:46.119Z,15.22
2022-09-12T23:16:17.108Z,15.25
2022-09-12T23:18:45.307Z,15.24
2022-09-12T23:21:14.651Z,15.30
2022-09-12T23:23:44.087Z,15.28
2022-09-12T23:26:14.517Z,15.37
2022-09-12T23:28:47.841Z,15.36
2022-09-12T23:31:17.147Z,15.19
2022-09-12T23:33:45.251Z,15.12
2022-09-12T23:36:14.201Z,15.12
2022-09-12T23:38:45.477Z,15.06
2022-09-12T23:41:15.665Z,15.01
2022-09-12T23:43:45.286Z,15.06
2022-09-12T23:46:13.951Z,15.03
2022-09-12T23:48:42.084Z,14.91
2022-09-12T23:51:10.188Z,15.05
2022-09-12T23:53:37.963Z,14.93
2022-09-12T23:56:07.809Z,14.82
2022-09-12T23:58:35.492Z,14.84
